Wichita Mid Continent Airport
KICT : rendu visible

Aérodrome :











RETROUVEZ-NOUS SUR...

 
LOGIN :

S'inscrire | Disclaimer

   EN    FR    IT 

 









Légende :    VFR   VFR Marginal   IFR   IFR Intensif   IFR Très Intensif
Visi : 
Plafond : 
>= 8 km
>= 3000ft
5 à 8 km
1000 à 3000 ft
1500m à 5 km
500 à 1000 ft
800 à 1500m
200 à 500 ft
< 800m
< 200 ft
Symboles :   Orages  Brouillard  Fortes neiges  Fortes précipitations  Vent > 20 kt







- Altitude de l'aérodrome : 1333 ft
- Code IATA : ICT


KICT - Wichita Mid Continent

DERNIER METAR :
  • 200853Z 07008KT 10SM FEW150 SCT250 14/08 A3000 RMK AO2 SLP152 T01390083 51003

METARs EXPIRÉS :
  • 200753Z 08009KT 10SM FEW150 SCT220 14/08 A3000 RMK AO2 SLP152 T01390083
  • 200653Z 07006KT 10SM FEW150 BKN220 14/08 A3000 RMK AO2 SLP152 T01390083

TAF KICT
Valide du 20 à 06h jusqu'au 21 à 06h UTC


200520Z 2006/2106 05008KT P6SM SCT250
FM201200 08012KT P6SM BKN250
FM201600 08015G23KT P6SM VCSH SCT040 BKN100
FM201800 09017G25KT 3SM SHRA VCTS OVC030CB
FM202100 09018G26KT 3SM TSRA BR OVC010CB
FIR KZKC / Amérique du Nord



MET'MAP, la Météo Aéronautique d'un coup d'oeil ! - Copyright ORBIFLY Décembre 2007 - Disclaimer

ORBIFLY MET'MAP TEAM :

Programmation & Développement : Alexandra Zaïnal
Conception & Développement : Baudouin d'Aumeries
Co-Programmation & Développement : Marc-Olivier Méhu
Soutien technique & logistique : Manuel Goepfert

Contact : metmap@orbifly.com




SOURCES & CREDITS :

   NOAA       Earth
Advisory